• Join FlightAware (Why Join?)
  • Login
  • US Flag 
04:07PM EST


 

Airport Tracker/Info


-or-


 

Live Flight TrackerFlight Track Log ✈ N510SR ✈ 22-Sep-2013 ✈ KOPF - KTEB

Flight Track Log - Related Links

Times and Time Zones

All times are in EDT time to prevent confusion due to time zone crossing. See the N510SR flight status page for this flight to view local times or setup timezone preferences in your user account.

Time Position Orientation Groundspeed Altitude Reporting Facility
EDT Latitude Longitude Course Direction KTS MPH feet Rate Location/Type
07:48PM 25.9083 -80.2914 309° West 170 196 300  Level Miami Center
07:49PM 25.9450 -80.3411 309° West 206 237 2,200 1,500 Climbing Miami Center
07:50PM 25.9839 -80.3722 324° Northwest 233 268 3,300 1,860 Climbing Miami Center
07:51PM 26.0128 -80.3014 66° East 291 335 5,800 2,460 Climbing Miami Center
07:52PM 26.0189 -80.2161 85° East 301 346 8,100 2,580 Climbing Miami Center
07:53PM 26.0253 -80.1214 86° East 308 354 10,800 1,920 Climbing Miami Center
07:54PM 26.0297 -80.0128 87° East 322 371 12,000 1,560 Climbing Miami Center
07:55PM 26.0508 -79.8956 79° East 354 407 14,000 2,040 Climbing Miami Center
07:56PM 26.0931 -79.7808 68° East 388 447 16,100 1,920 Climbing Miami Center
07:57PM 26.1494 -79.6711 60° Northeast 388 447 17,900 1,500 Climbing Miami Center
07:58PM 26.2447 -79.5994 34° Northeast 393 452 19,200 1,320 Climbing Miami Center
07:59PM 26.3522 -79.5417 26° Northeast 411 473 20,600 1,260 Climbing Miami Center
08:00PM 26.4600 -79.4814 27° Northeast 424 488 21,800 1,200 Climbing Miami Center
08:01PM 26.5719 -79.4189 27° Northeast 436 502 23,000 600 Climbing Miami Center
08:02PM 26.6878 -79.3539 27° Northeast 445 512 23,100 120 Climbing Miami Center
08:03PM 26.7869 -79.3000 26° Northeast 452 520 23,300 960 Climbing Miami Center
08:04PM 26.9281 -79.2261 25° Northeast 466 536 25,100 1,440 Climbing Miami Center
08:05PM 27.0439 -79.1608 27° Northeast 466 536 26,200 900 Climbing Miami Center
08:06PM 27.1600 -79.0908 28° Northeast 466 536 27,000 1,020 Climbing Miami Center
08:07PM 27.2800 -79.0253 26° Northeast 474 545 28,300 1,320 Climbing Miami Center
08:08PM 27.3936 -78.9714 23° Northeast 474 545 29,700 1,500 Climbing Miami Center
08:09PM 27.5172 -78.9361 14° North 469 540 31,400 1,860 Climbing Miami Center
08:10PM 27.6575 -78.9153 North 458 527 33,500 1,800 Climbing Miami Center
08:11PM 27.7831 -78.8964 North 453 521 35,000 1,440 Climbing Miami Center
08:12PM 27.9003 -78.8797 North 436 502 36,400 1,200 Climbing Miami Center
08:13PM 28.0236 -78.8631 North 436 502 37,500 1,380 Climbing Miami Center
08:14PM 28.1428 -78.8464 North 436 502 39,200 1,800 Climbing Miami Center
08:15PM 28.2578 -78.8294 North 425 489 41,200 1,500 Climbing Miami Center
08:16PM 28.3644 -78.8147 North 413 475 42,300 660 Climbing Miami Center
08:17PM 28.4794 -78.7981 North 406 467 42,600 300 Climbing Miami Center
08:18PM 28.5944 -78.7833 North 406 467 43,000 180 Climbing Miami Center
08:19PM 28.7139 -78.7642 North 419 482 43,000  Level Miami Center
08:20PM 28.8369 -78.7497 North 430 495 43,000  Level Miami Center
08:21PM 28.9542 -78.7278 North 430 495 43,000  Level Miami Center
08:22PM 29.0775 -78.7133 North 430 495 43,000  Level Miami Center
08:23PM 29.2008 -78.6964 North 436 502 43,000  Level Miami Center
08:24PM 29.3242 -78.6794 North 436 502 43,000  Level Miami Center
08:25PM 29.4475 -78.6625 North 442 509 43,000  Level Miami Center
08:26PM 29.5603 -78.6356 12° North 442 509 43,000  Level Miami Center
08:27PM 29.6939 -78.6306 North 460 529 43,000  Level Miami Center
08:28PM 29.8131 -78.6064 10° North 446 513 43,000  Level Miami Center
08:30PM 29.9786 -78.5839 North 445 512 43,000  Level Jacksonville Center
08:31PM 30.0989 -78.5617 North 439 505 43,000  Level Jacksonville Center
08:32PM 30.2239 -78.5489 North 446 513 43,000  Level Jacksonville Center
08:33PM 30.3442 -78.5292 North 435 501 43,100  Climbing Jacksonville Center
08:34PM 30.4689 -78.5136 North 444 511 43,100  Level Jacksonville Center
08:35PM 30.5850 -78.4939 North 439 505 43,100 -60 Level Jacksonville Center
08:36PM 30.7042 -78.4981 358° North 430 495 43,000 -60 Descending Jacksonville Center
08:37PM 30.8222 -78.5314 346° North 430 495 43,000  Level Jacksonville Center
08:38PM 30.9361 -78.5625 347° North 423 487 43,000  Level Jacksonville Center
08:39PM 31.0542 -78.5981 346° North 423 487 43,000  Level Jacksonville Center
08:40PM 31.1719 -78.6244 349° North 423 487 43,000  Level Jacksonville Center
08:41PM 31.2964 -78.6625 345° North 435 501 43,000  Level Jacksonville Center
08:42PM 31.4122 -78.6936 347° North 442 509 43,000  Level Jacksonville Center
08:43PM 31.5394 -78.6928 360° North 442 509 43,000  Level Jacksonville Center
08:44PM 31.6569 -78.6461 19° North 435 501 43,000  Level Jacksonville Center
08:45PM 31.7789 -78.6086 15° North 447 514 43,000  Level Jacksonville Center
08:46PM 31.9031 -78.5783 12° North 447 514 43,000  Level Jacksonville Center
08:47PM 32.0272 -78.5456 13° North 447 514 43,000  Level Jacksonville Center
08:48PM 32.1469 -78.5081 15° North 447 514 43,000  Level Jacksonville Center
08:49PM 32.2711 -78.4750 13° North 447 514 43,000  Level Jacksonville Center
08:50PM 32.3931 -78.4422 13° North 447 514 43,000  Level Jacksonville Center
08:51PM 32.5128 -78.4067 14° North 447 514 43,000  Level Jacksonville Center
08:52PM 32.6369 -78.3758 12° North 447 514 43,000  Level Jacksonville Center
08:53PM 32.7589 -78.3378 15° North 447 514 43,000  Level Jacksonville Center
08:54PM 32.8786 -78.3044 13° North 447 514 43,000  Level Jacksonville Center
08:55PM 33.0006 -78.2686 14° North 447 514 43,000  Level Jacksonville Center
08:56PM 33.1222 -78.2325 14° North 447 514 43,000  Level Jacksonville Center
08:57PM 33.3200 -78.1783 13° North 461 531 43,000  Level Washington Center
08:58PM 33.4458 -78.1425 13° North 456 525 43,000  Level Washington Center
08:59PM 33.5697 -78.1064 14° North 456 525 43,000  Level Washington Center
09:00PM 33.6892 -78.0725 13° North 451 519 43,000  Level Washington Center
09:01PM 33.8108 -78.0386 13° North 451 519 43,000  Level Washington Center
09:02PM 33.9411 -77.9975 15° North 456 525 43,100  Climbing Washington Center
09:03PM 34.0650 -77.9583 15° North 461 531 43,100  Level Washington Center
09:04PM 34.1889 -77.9244 13° North 456 525 43,100 -60 Level Washington Center
09:05PM 34.3083 -77.8950 12° North 456 525 43,000 -60 Descending Washington Center
09:06PM 34.4317 -77.8783 North 462 532 43,000  Level Washington Center
09:07PM 34.5589 -77.8744 North 455 524 43,000  Level Washington Center
09:08PM 34.6842 -77.8728 North 450 518 43,000  Level Washington Center
09:09PM 34.8094 -77.8711 North 450 518 43,000  Level Washington Center
09:10PM 34.9431 -77.8647 North 444 511 43,100  Climbing Washington Center
09:11PM 35.0706 -77.8608 North 444 511 43,100  Level Washington Center
09:12PM 35.1978 -77.8592 North 444 511 43,100  Level Washington Center
09:13PM 35.3250 -77.8578 North 449 517 43,100  Level Washington Center
09:14PM 35.4525 -77.8561 North 449 517 43,100  Level Washington Center
09:15PM 35.5817 -77.8547 North 459 528 43,100  Level Washington Center
09:16PM 35.7092 -77.8533 North 459 528 43,100  Level Washington Center
09:17PM 35.8383 -77.8519 360° North 459 528 43,100  Level Washington Center
09:18PM 35.9642 -77.8322 North 459 528 43,100  Level Washington Center
09:19PM 36.0900 -77.7922 14° North 459 528 43,100  Level Washington Center
09:20PM 36.2161 -77.7442 17° North 464 534 43,100  Level Washington Center
09:21PM 36.3400 -77.6936 18° North 464 534 43,100  Level Washington Center
09:22PM 36.4492 -77.6525 17° North 464 534 43,100  Level Washington Center
09:23PM 36.5753 -77.6042 17° North 459 528 43,100  Level Washington Center
09:24PM 36.6992 -77.5531 18° North 465 535 43,100  Level Washington Center
09:25PM 36.8231 -77.5042 18° North 460 529 43,100  Level Washington Center
09:26PM 36.9469 -77.4578 17° North 460 529 43,100  Level Washington Center
09:27PM 37.0708 -77.4089 17° North 460 529 43,100  Level Washington Center
09:28PM 37.1967 -77.3647 16° North 460 529 43,100  Level Washington Center
09:29PM 37.3203 -77.3233 15° North 460 529 43,100 -180 Level Washington Center
09:30PM 37.4458 -77.2817 15° North 460 529 42,800 -840 Descending Washington Center
09:31PM 37.5739 -77.2322 17° North 465 535 41,500 -1,140 Descending Washington Center
09:32PM 37.6997 -77.1822 17° North 465 535 40,600 -720 Descending Washington Center
09:33PM 37.8275 -77.1350 16° North 465 535 40,100 -660 Descending Washington Center
09:34PM 37.9575 -77.0878 16° North 470 541 39,300 -1,620 Descending Washington Center
09:35PM 38.0875 -77.0375 17° North 482 555 36,900 -2,400 Descending Washington Center
09:36PM 38.2133 -76.9711 23° Northeast 482 555 34,600 -2,220 Descending Washington Center
09:37PM 38.3250 -76.8728 35° Northeast 489 563 32,500 -1,800 Descending Washington Center
09:38PM 38.4322 -76.7606 39° Northeast 489 563 31,100 -780 Descending Washington Center
09:39PM 38.5375 -76.6508 39° Northeast 489 563 31,000  Descending Washington Center
09:40PM 38.6469 -76.5381 39° Northeast 494 568 31,100  Climbing Washington Center
09:41PM 38.7686 -76.4542 28° Northeast 499 574 31,000 -1,020 Descending Washington Center
09:42PM 38.8961 -76.3811 24° Northeast 494 568 29,200 -2,220 Descending Washington Center
09:43PM 39.0175 -76.3131 24° Northeast 487 560 26,700 -2,460 Descending Washington Center
09:44PM 39.1283 -76.2339 29° Northeast 475 547 24,300 -1,380 Descending Washington Center
09:45PM 39.2456 -76.1250 36° Northeast 460 529 24,000 -540 Descending Washington Center
09:46PM 39.3439 -76.0289 37° Northeast 454 522 23,300 -1,560 Descending Washington Center
09:47PM 39.4403 -75.9300 38° Northeast 447 514 21,000 -2,400 Descending Washington Center
09:49PM 39.6000 -75.7833 35° Northeast 425 489 17,100 -2,280 Descending Philadelphia TRACON
09:50PM 39.7000 -75.7000 33° Northeast 409 471 15,000 -2,040 Descending Philadelphia TRACON
09:51PM 39.7833 -75.6167 38° Northeast 398 458 13,100 -1,020 Descending Philadelphia TRACON
09:52PM 39.8667 -75.5333 37° Northeast 392 451 13,000 -60 Descending Philadelphia TRACON
09:53PM 39.9667 -75.4500 33° Northeast 405 466 13,000  Level Philadelphia TRACON
09:54PM 40.0500 -75.3667 37° Northeast 401 461 13,000  Level Philadelphia TRACON
09:55PM 40.1333 -75.2833 37° Northeast 402 463 13,000 -900 Level Philadelphia TRACON
09:57PM 40.2833 -75.1500 34° Northeast 318 366 10,500 -1,500 Descending New York TRACON
09:58PM 40.3333 -75.0833 45° Northeast 305 351 8,800 -1,620 Descending New York TRACON
09:59PM 40.4000 -75.0000 44° Northeast 285 328 7,300 -1,380 Descending New York TRACON
10:00PM 40.4333 -74.9167 62° Northeast 272 313 6,000 -1,140 Descending New York TRACON
10:01PM 40.4667 -74.8333 62° Northeast 269 310 5,000 -1,020 Descending New York TRACON
10:02PM 40.5167 -74.7500 52° Northeast 262 302 4,000 -900 Descending New York TRACON
10:03PM 40.5500 -74.6667 62° Northeast 260 299 3,200 -540 Descending New York TRACON
10:04PM 40.5833 -74.5833 62° Northeast 226 260 3,000 -120 Descending New York TRACON
10:05PM 40.6000 -74.5167 72° East 214 246 3,000  Level New York TRACON
10:06PM 40.6333 -74.4500 57° Northeast 214 246 3,000 -300 Level New York TRACON
10:07PM 40.6667 -74.3833 57° Northeast 213 245 2,500 -480 Descending New York TRACON
10:08PM 40.7000 -74.3167 57° Northeast 211 243 2,100 -300 Descending New York TRACON
10:09PM 40.7167 -74.2500 72° East 205 236 2,000 -300 Descending New York TRACON
10:10PM 40.7667 -74.2000 37° Northeast 182 209 1,500 -300 Descending New York TRACON
10:11PM 40.7833 -74.1500 66° East 169 194 1,500 -300 Level New York TRACON
10:12PM 40.8167 -74.1167 37° Northeast 145 167 900 -600 Descending New York TRACON